Ana Sayfa
METAR-TAF:

METAR-TAF

Havaalanları :

Alice Springs, Avustralya

Enlem: 23-48S, Boylam: 133-53E, yükseklik: 545 m

Güncel hava durumu gözlemi

Rapor saat 02:30 UTC de 21 dakika önce yapıldı.
Rüzgar güneydoğudan 7 kt, doğu/kuzeydoğu ve güney arasında değişken
Sıcaklık 36°C
Nem 7%
Basınç 1013 hPa
Görüş mesafesi 10 km veya daha fazla
1500 m altında bulut yok ve kümülonimbus yok

METAR: YBAS 230230Z 13007KT 060V180 CAVOK 36/M05 Q1013 RF00.0/000.0

Saat: 12:21 (02:51 UTC)

Tahmin

Rapor saat 23:06 UTC de 3 saat ve 45 dakika önce yapıldı.
Ayın 23'si saat 00 UTC'den ayın 23'si saat 24 UTC'ye kadar geçerli Tahmin
Rüzgar doğu/güneydoğudan 12 kt
Görüş mesafesi 10 km veya daha fazla
1500 m altında bulut yok ve kümülonimbus yok
Ayın 23'si saat 1200 UTC'den
Rüzgar doğu/güneydoğudan 6 kt
Görüş mesafesi 10 km veya daha fazla
1500 m altında bulut yok ve kümülonimbus yok

TAF: YBAS 222306Z 2300/2324 11012KT CAVOK FM231200 11006KT CAVOK

4.000'den fazla havaalanı için hava durumu gözlemleri ve tahminleri (METAR ve TAF raporları).

Kullanılabilir istasyonlar harita üzerinde sarı ve kırmızı noktalarla gösterilir.

İstasyonun adını görmek için fareyi noktanın üzerinde gezdirin.

Sonrasında hava gözlem ve tahminlerini görmek için tıklayın.

Haritayı değiştirmek için: yaklaştırmak için siyah artı işaretli yeşil düğmeye ve uzaklaştırmak için de eksi işaretli düğmeye hızla tıklayın; bitişik haritalar için yeşil okları kullanın.


METAR-TAF: